map of SWA home
SWA - Airport
Location
City:  Jieyang, Guangdong, China
Near (Alt.):Shantou
Name:Chaoshan International Airport
ICAO:ZGOW
IATA:SWA

Details
Type:Airport (Aerodrome, Airfield)
Use:Public/Civil, International (customs port of entry)
Latitude:23°33'N (23.553)
Longitude:116°30'E (116.502)
Elevation:52 ft (16 m)
Variation:3.54°W (WMM2015 magnetic declination)
-0.07° annual change
Runways:1
Longest:9186 × 148 ft (2800 × 45 m), paved

Time
Time Zone:UTC+8
Local Time:

Weather
METAR:ZGOW 240900Z 14003MPS 110V170 CAVOK 19/08 Q1020 NOSIG

Related Locations
Nearby:
Farthest:ORA: 12382 mi / 19927 km
Orán (San Ramón de la Nueva Orán) [Orán Airport], A, AR

Find:

   beyond  
but within

Other Information
Maps:
NOTAMs:
Links:
Sources:

  
  • flag of China
  

Airport Diagram

Airport diagram for SWA

Airport diagram PDF

Sectional Chart

Flight Planning
at skyvector.com

Satellite Image

Google Maps Satellite view

 

Copyright © 2004-2019 Karl L. Swartz. All rights reserved.
The Great Circle Mapper name and logo are trademarks of the Great Circle Mapper.
All other trademarks mentioned herein belong to their respective owners.
Please see credits for attibutions and further copyright information.

  Follow gcmap on Facebook Follow gcmap on Twitter Follow gcmap on Google+ GCmap on LinkedIn

hCard Microformat

Geo Microformat